Nearby METAR Reports

 

EGNM - Leeds And Bradford, United Kingdom
Distance from station: N 11mi, 18km
Updated: 16/12/2019 06:50
Partly cloudy
Partly cloudy
 Wind from SW
Wind: SW 22 mph , 35 km/h
Temperature: 5°C
Wind Chill: -1°C
Dew Point: 1°C
Humidity: 76%
Barometer: 992 hPa
Clouds: Partly cloudy
Visibility: 6 miles , 10 km
Cloud details: Few Clouds 640 m
Partly cloudy 1006 m
2019/12/16 06:50 EGNM 160650Z 22019KT 9999 FEW021 SCT033 05/01 Q0992
EGXU - Linton-On-Ouse, United Kingdom
Distance from station: NNE 28mi, 45km
Updated: 16/12/2019 06:50
Few Clouds
Few Clouds
 Wind from S
Wind: S 15 mph , 24 km/h
Temperature: 5°C
Wind Chill: 1°C
Dew Point: 2°C
Humidity: 81%
Barometer: 992 hPa
Clouds: Few Clouds
Visibility: 6 miles , 10 km
Cloud details: Few Clouds 914 m
2019/12/16 06:50 EGXU 160650Z AUTO 19013KT 9999 // FEW030/// 05/02 Q0992
 
EGCN - Doncaster Sheffield, United Kingdom
Distance from station: ESE 30mi, 45km
Updated: 16/12/2019 06:50
Clear
Clear
 Wind from SSW
Wind: SSW 20 mph , 31 km/h
Temperature: 4°C
Wind Chill: -2°C
Dew Point: 3°C
Humidity: 93%
Barometer: 995 hPa
Summary: Clear
Visibility: greater than 7 miles , 10 km
2019/12/16 06:50 EGCN 160650Z 20017KT CAVOK 04/03 Q0995
EGXZ - Topcliffe RAF, United Kingdom
Distance from station: NNE 36mi, 57km
Updated: 16/12/2019 06:50
Partly cloudy
Partly cloudy
 Wind from SSE
Wind: SSE 14 mph , 22 km/h
Temperature: 3°C
Wind Chill: -2°C
Dew Point: 2°C
Humidity: 93%
Barometer: 992 hPa
Clouds: Partly cloudy
Visibility: 6 miles , 10 km
Cloud details: Partly cloudy 853 m
2019/12/16 06:50 EGXZ 160650Z AUTO 15012KT 9999 SCT028/// 03/02 Q0992
 
EGCC - Manchester Intl, United Kingdom
Distance from station: SW 36mi, 58km
Updated: 16/12/2019 06:50
Mostly cloudy
Mostly cloudy
 Wind from SSW
Wind: SSW 8 mph , 13 km/h
Temperature: 4°C
Wind Chill: 1°C
Dew Point: 2°C
Humidity: 87%
Barometer: 995 hPa
Clouds: Mostly cloudy
Visibility: 6 miles , 10 km
Cloud details: Mostly cloudy 945 m
2019/12/16 06:50 EGCC 160650Z AUTO 20007KT 9999 BKN031 04/02 Q0995 NOSIG
EGXE - Leeming RAF, United Kingdom
Distance from station: N 40mi, 65km
Updated: 16/12/2019 06:50
Light rain, Showers, Mostly cloudy
Light rain, Showers, Mostly cloudy
 Wind from S
Wind: S 10 mph , 17 km/h
Temperature: 4°C
Wind Chill: 0°C
Dew Point: 2°C
Humidity: 87%
Barometer: 992 hPa
Summary: Light rain, Showers
Clouds: Mostly cloudy
Visibility: 6 miles , 10 km
Cloud details: Partly cloudy 640 m
Mostly cloudy 884 m
2019/12/16 06:50 EGXE 160650Z 17009KT 9999 -SHRA SCT021 BKN029 04/02 Q0992 RMK WHT